Time;durP1;ratioP1;P1;durP2;ratioP2;P2;SDS_P1;SDS_P2;PMS_P1;PMS_P2;Temp;Humidity;BMP_temperature;BMP_pressure;BME280_temperature;BME280_humidity;BME280_pressure;Samples;Min_cycle;Max_cycle;Signal;HPM_P1;HPM_P2
2022/07/24 00:01:39;;;;;;;15.23;9.00;;;29.60;84.10;;;;;;5073295;28;20381;-70
2022/07/24 00:04:04;;;;;;;20.60;9.18;;;29.60;84.20;;;;;;5073649;28;20024;-73
2022/07/24 00:06:31;;;;;;;16.05;8.57;;;29.60;84.50;;;;;;5073366;28;20027;-70
2022/07/24 00:08:56;;;;;;;16.92;9.05;;;29.50;84.50;;;;;;5073320;28;20024;-70
2022/07/24 00:11:22;;;;;;;17.75;9.95;;;29.50;84.80;;;;;;5073264;28;20389;-74
2022/07/24 00:13:48;;;;;;;11.02;8.20;;;29.50;84.90;;;;;;5073287;28;20052;-73
2022/07/24 00:16:14;;;;;;;15.18;8.45;;;29.50;84.80;;;;;;5072766;28;20026;-70
2022/07/24 00:18:41;;;;;;;13.98;8.20;;;29.50;84.90;;;;;;5072737;28;20078;-69
2022/07/24 00:21:07;;;;;;;11.73;7.85;;;29.50;84.80;;;;;;5054877;28;20028;-73
2022/07/24 00:23:33;;;;;;;12.70;7.75;;;29.50;84.70;;;;;;5072976;28;20550;-73
2022/07/24 00:25:58;;;;;;;14.52;8.65;;;29.50;85.20;;;;;;5072782;28;20384;-73
2022/07/24 00:28:24;;;;;;;12.93;8.32;;;29.50;84.60;;;;;;5072709;28;20050;-75
2022/07/24 00:30:50;;;;;;;11.90;8.00;;;29.50;84.80;;;;;;5072890;28;20100;-74
2022/07/24 00:33:16;;;;;;;11.57;7.78;;;29.50;84.60;;;;;;5072822;28;20413;-75
2022/07/24 00:35:43;;;;;;;10.68;7.18;;;29.40;84.90;;;;;;5072612;28;20020;-74
2022/07/24 00:38:09;;;;;;;14.27;7.97;;;29.40;85.00;;;;;;5072961;28;20029;-72
2022/07/24 00:40:35;;;;;;;12.55;8.80;;;29.50;85.10;;;;;;5072463;28;20037;-75
2022/07/24 00:43:03;;;;;;;16.20;8.63;;;29.40;85.70;;;;;;5072623;28;20028;-75
2022/07/24 00:45:29;;;;;;;14.30;8.50;;;29.40;86.00;;;;;;5054589;28;20111;-76
2022/07/24 00:47:55;;;;;;;16.80;8.27;;;29.30;86.00;;;;;;5072870;28;20426;-72
2022/07/24 00:50:20;;;;;;;11.98;8.77;;;29.30;86.40;;;;;;5054452;28;20112;-71
2022/07/24 00:52:46;;;;;;;13.25;8.20;;;29.30;85.90;;;;;;5072352;28;20079;-72
2022/07/24 00:55:13;;;;;;;14.88;8.70;;;29.30;85.80;;;;;;5072042;28;20021;-71
2022/07/24 00:57:39;;;;;;;13.15;8.30;;;29.30;85.70;;;;;;5072463;28;20033;-72
2022/07/24 01:00:07;;;;;;;13.07;8.80;;;29.30;85.90;;;;;;5075928;28;20129;-73
2022/07/24 01:02:34;;;;;;;15.25;8.27;;;29.20;85.90;;;;;;5076323;28;20028;-70
2022/07/24 01:05:00;;;;;;;14.30;8.70;;;29.20;85.80;;;;;;5076545;28;20105;-73
2022/07/24 01:07:26;;;;;;;12.98;8.65;;;29.20;86.00;;;;;;5076288;28;20053;-75
2022/07/24 01:09:52;;;;;;;16.67;8.40;;;29.20;86.00;;;;;;5075801;28;20370;-75
2022/07/24 01:12:18;;;;;;;16.95;9.27;;;29.10;85.90;;;;;;5076108;28;20020;-76
2022/07/24 01:14:44;;;;;;;13.50;8.48;;;29.10;85.70;;;;;;5076004;28;20103;-72
2022/07/24 01:17:10;;;;;;;14.65;8.95;;;29.10;85.80;;;;;;5058040;28;20148;-72
2022/07/24 01:19:36;;;;;;;15.23;8.70;;;29.20;85.40;;;;;;5075850;28;20093;-75
2022/07/24 01:22:02;;;;;;;12.82;8.65;;;29.10;85.30;;;;;;5076014;28;20032;-75
2022/07/24 01:24:28;;;;;;;17.90;9.27;;;29.20;85.10;;;;;;5077149;28;20100;-74
2022/07/24 01:26:53;;;;;;;17.75;9.10;;;29.20;84.60;;;;;;5076570;28;20048;-71
2022/07/24 01:29:20;;;;;;;13.27;8.90;;;29.20;84.50;;;;;;5077563;28;20021;-73
2022/07/24 01:31:46;;;;;;;18.75;9.30;;;29.20;84.30;;;;;;5076638;28;20024;-69
2022/07/24 01:34:12;;;;;;;12.02;8.35;;;29.20;83.90;;;;;;5076556;28;20048;-68
2022/07/24 01:36:37;;;;;;;15.25;8.82;;;29.20;83.50;;;;;;5075699;28;20098;-68
2022/07/24 01:39:03;;;;;;;13.07;7.97;;;29.20;83.10;;;;;;5075643;28;20429;-70
2022/07/24 01:41:29;;;;;;;15.43;8.05;;;29.10;82.90;;;;;;5076196;28;20033;-70
2022/07/24 01:43:55;;;;;;;14.23;8.32;;;29.10;82.20;;;;;;5075890;28;20024;-69
2022/07/24 01:46:20;;;;;;;13.40;7.88;;;29.10;82.20;;;;;;5057472;28;20016;-69
2022/07/24 01:48:46;;;;;;;13.55;8.25;;;29.10;81.70;;;;;;5075451;28;20032;-70
2022/07/24 01:51:12;;;;;;;13.45;8.30;;;29.10;82.10;;;;;;5075328;28;20095;-70
2022/07/24 01:53:38;;;;;;;9.68;7.55;;;29.10;81.10;;;;;;5075440;28;20046;-71
2022/07/24 01:56:04;;;;;;;12.27;8.43;;;29.00;81.30;;;;;;5075118;28;20494;-69
2022/07/24 01:58:29;;;;;;;17.25;8.18;;;28.90;81.50;;;;;;5075451;28;20542;-73
2022/07/24 02:00:55;;;;;;;13.25;8.70;;;28.90;81.70;;;;;;5075384;28;20052;-74
2022/07/24 02:03:21;;;;;;;15.15;9.02;;;28.70;81.70;;;;;;5075340;28;20028;-75
2022/07/24 02:05:48;;;;;;;14.75;7.95;;;28.70;81.60;;;;;;5075031;28;20025;-77
2022/07/24 02:08:13;;;;;;;14.77;8.48;;;28.70;81.50;;;;;;5074900;28;20385;-77
2022/07/24 02:10:39;;;;;;;11.65;8.32;;;28.70;81.00;;;;;;5073739;28;20535;-74
2022/07/24 02:13:06;;;;;;;15.13;8.80;;;28.60;80.40;;;;;;5074991;28;20064;-77
2022/07/24 02:15:32;;;;;;;12.27;8.05;;;28.60;80.00;;;;;;5057141;28;20033;-75
2022/07/24 02:18:00;;;;;;;12.48;7.97;;;28.60;79.40;;;;;;5074955;28;20050;-77
2022/07/24 02:20:26;;;;;;;13.90;8.93;;;28.60;79.00;;;;;;5056618;28;20504;-76
2022/07/24 02:22:52;;;;;;;15.25;9.20;;;28.60;78.20;;;;;;5075377;28;20338;-76
2022/07/24 02:25:19;;;;;;;16.50;9.90;;;28.60;77.70;;;;;;5075114;28;20024;-75
2022/07/24 02:27:45;;;;;;;12.80;8.57;;;28.50;77.60;;;;;;5075626;28;20572;-77
2022/07/24 02:30:14;;;;;;;13.93;9.43;;;28.40;77.40;;;;;;5075123;28;20111;-75
2022/07/24 02:32:39;;;;;;;16.42;9.02;;;28.40;77.50;;;;;;5075312;28;20025;-78
2022/07/24 02:35:06;;;;;;;14.68;9.02;;;28.40;77.20;;;;;;5074419;28;20024;-74
2022/07/24 02:37:31;;;;;;;13.25;9.15;;;28.40;76.90;;;;;;5074462;28;20108;-75
2022/07/24 02:39:57;;;;;;;14.10;8.45;;;28.30;75.90;;;;;;5074428;28;20111;-74
2022/07/24 02:42:23;;;;;;;11.60;8.55;;;28.30;75.50;;;;;;5074612;28;20032;-74
2022/07/24 02:44:49;;;;;;;12.45;8.55;;;28.30;75.10;;;;;;5074524;28;20725;-73
2022/07/24 02:47:14;;;;;;;13.50;9.30;;;28.30;74.50;;;;;;5074526;28;20017;-74
2022/07/24 02:49:40;;;;;;;13.90;8.52;;;28.30;74.20;;;;;;5074263;28;20020;-75
2022/07/24 02:52:06;;;;;;;12.65;8.75;;;28.30;73.60;;;;;;5074761;28;20032;-75
2022/07/24 02:54:32;;;;;;;15.95;8.73;;;28.30;73.10;;;;;;5074506;28;20477;-71
2022/07/24 02:56:57;;;;;;;14.13;8.20;;;28.30;72.90;;;;;;5074079;28;20055;-76
2022/07/24 02:59:23;;;;;;;12.70;8.70;;;28.30;72.60;;;;;;5074119;28;20033;-75
2022/07/24 03:01:49;;;;;;;13.40;8.13;;;28.30;71.70;;;;;;5074326;28;20039;-75
2022/07/24 03:04:14;;;;;;;12.77;8.60;;;28.40;71.50;;;;;;5074137;28;20040;-75
2022/07/24 03:06:40;;;;;;;14.05;8.90;;;28.40;71.10;;;;;;5073928;28;20452;-74
2022/07/24 03:09:06;;;;;;;15.63;9.07;;;28.30;71.00;;;;;;5055971;28;20020;-76
2022/07/24 03:11:32;;;;;;;13.38;8.45;;;28.30;70.80;;;;;;5073816;28;20099;-75
2022/07/24 03:13:57;;;;;;;15.02;8.75;;;28.30;70.90;;;;;;5074017;28;20021;-74
2022/07/24 03:16:23;;;;;;;13.13;8.82;;;28.30;70.90;;;;;;5065421;28;20049;-76
2022/07/24 03:18:49;;;;;;;16.23;8.80;;;28.30;70.50;;;;;;5073613;28;20036;-71
2022/07/24 03:21:16;;;;;;;13.48;8.18;;;28.30;70.30;;;;;;5073297;28;20033;-73
2022/07/24 03:23:42;;;;;;;18.42;9.00;;;28.30;70.50;;;;;;5073686;28;20028;-70
2022/07/24 03:26:08;;;;;;;13.40;8.70;;;28.20;70.70;;;;;;5073769;28;20323;-70
2022/07/24 03:28:34;;;;;;;14.70;8.73;;;28.20;70.80;;;;;;5074966;28;20476;-75
2022/07/24 03:31:02;;;;;;;13.50;8.57;;;28.20;70.90;;;;;;5056885;28;20043;-75
2022/07/24 03:33:28;;;;;;;14.63;9.07;;;28.10;71.80;;;;;;5074596;28;20496;-74
2022/07/24 03:35:55;;;;;;;11.52;8.75;;;28.00;72.60;;;;;;5073837;28;20021;-72
2022/07/24 03:38:21;;;;;;;12.80;8.60;;;28.00;73.10;;;;;;5055497;28;20462;-71
2022/07/24 03:40:46;;;;;;;16.05;8.95;;;28.00;73.30;;;;;;5073594;28;20043;-70
2022/07/24 03:43:13;;;;;;;12.65;8.55;;;28.00;73.20;;;;;;5073176;28;20470;-72
2022/07/24 03:45:39;;;;;;;15.73;8.63;;;28.00;73.00;;;;;;5073324;28;20028;-71
2022/07/24 03:48:04;;;;;;;14.95;8.52;;;28.00;72.90;;;;;;5073272;28;20088;-72
2022/07/24 03:50:32;;;;;;;18.13;8.70;;;28.00;72.60;;;;;;5073197;28;20021;-69
2022/07/24 03:52:58;;;;;;;13.18;8.25;;;28.00;71.70;;;;;;5073135;28;20414;-74
2022/07/24 03:55:24;;;;;;;11.50;7.22;;;28.00;71.60;;;;;;5085925;22;20080;-71
2022/07/24 03:57:50;;;;;;;12.15;8.25;;;28.00;71.00;;;;;;5073278;28;20533;-70
2022/07/24 04:00:16;;;;;;;14.82;8.10;;;28.00;70.30;;;;;;5073137;28;20040;-69
2022/07/24 04:02:41;;;;;;;13.10;7.78;;;27.90;70.20;;;;;;5055317;28;20048;-70
2022/07/24 04:05:08;;;;;;;12.32;7.47;;;27.90;69.90;;;;;;5073213;28;20032;-69
2022/07/24 04:07:38;;;;;;;13.07;7.70;;;27.80;70.00;;;;;;5055358;28;20078;-70
2022/07/24 04:10:05;;;;;;;14.18;8.00;;;27.80;70.10;;;;;;5073231;28;20445;-69
2022/07/24 04:12:31;;;;;;;14.38;8.02;;;27.80;70.20;;;;;;5073133;28;20095;-70
2022/07/24 04:14:56;;;;;;;10.68;7.70;;;27.70;70.50;;;;;;5073100;28;20059;-71
2022/07/24 04:17:22;;;;;;;14.48;8.27;;;27.70;70.60;;;;;;5073063;28;20044;-72
2022/07/24 04:19:48;;;;;;;15.50;8.98;;;27.70;70.80;;;;;;5054929;28;20028;-70
2022/07/24 04:22:14;;;;;;;12.75;7.78;;;27.80;70.60;;;;;;5073133;28;20486;-71
2022/07/24 04:24:39;;;;;;;14.27;8.07;;;27.80;70.20;;;;;;5072925;28;20024;-70
2022/07/24 04:27:05;;;;;;;17.30;7.88;;;27.70;70.00;;;;;;5073097;28;20485;-69
2022/07/24 04:29:31;;;;;;;13.95;7.50;;;27.70;70.00;;;;;;5073092;28;20032;-70
2022/07/24 04:31:57;;;;;;;10.88;8.00;;;27.60;70.10;;;;;;5072921;28;20477;-69
2022/07/24 04:34:22;;;;;;;9.15;7.60;;;27.60;69.80;;;;;;5075205;28;20025;-70
2022/07/24 04:36:48;;;;;;;14.45;8.25;;;27.70;69.90;;;;;;5077006;28;20024;-71
2022/07/24 04:39:14;;;;;;;12.13;7.82;;;27.70;69.80;;;;;;5077137;28;20056;-71
2022/07/24 04:41:40;;;;;;;13.73;7.88;;;27.60;69.40;;;;;;5077055;28;20036;-71
2022/07/24 04:44:06;;;;;;;16.27;8.60;;;27.60;69.20;;;;;;5077073;28;20032;-69
2022/07/24 04:46:32;;;;;;;13.55;7.85;;;27.60;68.90;;;;;;5076868;28;20017;-70
2022/07/24 04:48:57;;;;;;;12.57;7.78;;;27.60;68.70;;;;;;5076993;28;20104;-69
2022/07/24 04:51:23;;;;;;;11.10;7.85;;;27.50;68.20;;;;;;5076886;28;20055;-69
2022/07/24 04:53:52;;;;;;;12.05;7.35;;;27.50;68.00;;;;;;5076863;28;20020;-69
2022/07/24 04:56:19;;;;;;;10.60;7.22;;;27.60;67.60;;;;;;5076330;28;20068;-69
2022/07/24 04:58:44;;;;;;;11.50;7.60;;;27.60;66.90;;;;;;5076416;28;20024;-70
2022/07/24 05:01:10;;;;;;;13.98;7.75;;;27.60;66.50;;;;;;5076811;28;20074;-70
2022/07/24 05:03:36;;;;;;;12.70;7.03;;;27.60;65.90;;;;;;5076302;28;20033;-69
2022/07/24 05:06:02;;;;;;;12.77;7.30;;;27.50;66.10;;;;;;5076402;28;20029;-68
2022/07/24 05:08:27;;;;;;;10.55;7.85;;;27.50;65.80;;;;;;5076320;28;20420;-69
2022/07/24 05:10:53;;;;;;;13.43;7.15;;;27.60;65.30;;;;;;5076579;28;20095;-70
2022/07/24 05:13:19;;;;;;;14.82;7.25;;;27.60;64.90;;;;;;5076425;28;20040;-69
2022/07/24 05:15:44;;;;;;;11.80;7.35;;;27.60;64.30;;;;;;5076349;28;20020;-70
2022/07/24 05:18:10;;;;;;;11.60;6.93;;;27.70;63.80;;;;;;5076022;28;20082;-70
2022/07/24 05:20:36;;;;;;;10.90;6.72;;;27.70;62.90;;;;;;5057935;28;20068;-69
2022/07/24 05:23:02;;;;;;;11.10;6.55;;;27.90;61.70;;;;;;5076241;28;20029;-70
2022/07/24 05:25:27;;;;;;;9.88;6.45;;;28.10;60.30;;;;;;5076001;28;20029;-70
2022/07/24 05:27:53;;;;;;;9.55;6.60;;;28.30;59.30;;;;;;5075851;28;20027;-69
2022/07/24 05:30:19;;;;;;;9.32;6.72;;;28.50;58.30;;;;;;5076059;28;20016;-69
2022/07/24 05:32:44;;;;;;;10.50;6.07;;;28.70;58.00;;;;;;5075910;28;20115;-69
2022/07/24 05:35:10;;;;;;;12.20;6.38;;;29.00;56.70;;;;;;5075913;28;20032;-70
2022/07/24 05:37:36;;;;;;;12.80;7.68;;;29.10;56.00;;;;;;5075990;28;20032;-68
2022/07/24 05:40:04;;;;;;;12.65;6.97;;;29.20;55.70;;;;;;5075768;28;20097;-69
2022/07/24 05:42:30;;;;;;;10.73;6.90;;;29.30;54.70;;;;;;5075675;28;20036;-70
2022/07/24 05:44:55;;;;;;;12.10;6.72;;;29.50;55.00;;;;;;5075201;28;20025;-70
2022/07/24 05:47:21;;;;;;;15.43;8.55;;;29.80;54.70;;;;;;5075850;28;20474;-69
2022/07/24 05:49:47;;;;;;;19.45;8.00;;;30.10;53.80;;;;;;5075746;28;20032;-70
2022/07/24 05:52:12;;;;;;;11.40;6.85;;;30.20;53.40;;;;;;5075575;28;20028;-70
2022/07/24 05:54:38;;;;;;;13.30;6.50;;;30.50;53.40;;;;;;5075719;28;20470;-70
2022/07/24 05:57:04;;;;;;;11.88;6.65;;;30.80;52.80;;;;;;5075502;28;20049;-70
2022/07/24 05:59:29;;;;;;;12.32;6.78;;;30.90;51.90;;;;;;5076734;28;20020;-69
2022/07/24 06:01:55;;;;;;;9.93;7.15;;;31.00;52.00;;;;;;5076033;28;20417;-70
2022/07/24 06:04:21;;;;;;;9.98;6.65;;;31.30;51.60;;;;;;5075662;28;20016;-69
2022/07/24 06:06:47;;;;;;;12.20;6.32;;;31.50;51.00;;;;;;5075633;28;20158;-70
2022/07/24 06:09:13;;;;;;;14.02;6.78;;;31.60;50.80;;;;;;5075395;28;20465;-70
2022/07/24 06:11:38;;;;;;;9.95;6.65;;;31.80;50.40;;;;;;5075459;28;20165;-70
2022/07/24 06:14:04;;;;;;;14.48;6.40;;;32.00;50.00;;;;;;5075202;28;20052;-70
2022/07/24 06:16:30;;;;;;;15.85;6.50;;;32.00;50.00;;;;;;5075279;28;20032;-73
2022/07/24 06:18:56;;;;;;;13.93;6.63;;;32.10;50.20;;;;;;5075307;28;20025;-69
2022/07/24 06:21:22;;;;;;;20.55;6.45;;;32.30;49.70;;;;;;5074863;28;20032;-70
2022/07/24 06:23:47;;;;;;;10.88;6.82;;;32.60;49.60;;;;;;5074929;28;20020;-70
2022/07/24 06:26:13;;;;;;;9.45;6.25;;;32.60;49.10;;;;;;5074744;28;20024;-69
2022/07/24 06:28:39;;;;;;;12.70;6.15;;;32.80;49.00;;;;;;5074815;28;20020;-70
2022/07/24 06:31:07;;;;;;;9.50;6.25;;;32.90;48.80;;;;;;5074963;28;20020;-69
2022/07/24 06:33:32;;;;;;;12.80;6.55;;;32.80;48.60;;;;;;5074833;28;20480;-70
2022/07/24 06:35:59;;;;;;;12.75;6.50;;;32.90;48.70;;;;;;5074772;28;20063;-69
2022/07/24 06:38:25;;;;;;;9.00;5.90;;;33.10;48.40;;;;;;5074680;28;20024;-70
2022/07/24 06:40:51;;;;;;;10.23;6.85;;;33.20;48.30;;;;;;5074843;28;20032;-70
2022/07/24 06:43:16;;;;;;;10.38;6.40;;;33.40;48.50;;;;;;5074772;28;20867;-70
2022/07/24 06:45:43;;;;;;;11.07;6.35;;;33.50;48.50;;;;;;5074686;28;20354;-71
2022/07/24 06:48:08;;;;;;;9.88;6.55;;;33.60;48.20;;;;;;5074668;28;20029;-69
2022/07/24 06:50:34;;;;;;;10.68;6.13;;;33.70;48.00;;;;;;5074600;28;20023;-69
2022/07/24 06:53:00;;;;;;;13.45;6.18;;;33.70;47.90;;;;;;5074417;28;20024;-72
2022/07/24 06:55:26;;;;;;;11.50;6.50;;;33.80;48.00;;;;;;5073829;28;20103;-71
2022/07/24 06:57:51;;;;;;;8.38;6.47;;;33.90;48.10;;;;;;5073563;28;20044;-71
2022/07/24 07:00:17;;;;;;;9.90;6.55;;;33.80;48.30;;;;;;5074406;28;20039;-71
2022/07/24 07:02:43;;;;;;;10.15;6.07;;;33.90;48.40;;;;;;5073835;28;20028;-71
2022/07/24 07:05:09;;;;;;;8.93;6.88;;;33.90;48.50;;;;;;5073786;28;20056;-72
2022/07/24 07:07:36;;;;;;;13.68;7.10;;;33.90;49.00;;;;;;5073981;28;20465;-70
2022/07/24 07:10:03;;;;;;;13.15;7.50;;;34.00;49.70;;;;;;5074063;28;20052;-73
2022/07/24 07:12:28;;;;;;;12.70;7.18;;;34.10;50.60;;;;;;5073502;28;20025;-71
2022/07/24 07:14:54;;;;;;;11.82;6.90;;;34.10;50.90;;;;;;5073894;28;20117;-71
2022/07/24 07:17:20;;;;;;;12.75;7.03;;;34.10;51.20;;;;;;5073931;28;20033;-72
2022/07/24 07:19:45;;;;;;;11.82;6.82;;;34.30;51.40;;;;;;5073386;28;20417;-72
2022/07/24 07:22:11;;;;;;;11.45;6.75;;;34.30;51.60;;;;;;5073505;28;20025;-70
2022/07/24 07:24:37;;;;;;;15.30;6.72;;;34.40;51.10;;;;;;5073607;28;20028;-74
2022/07/24 07:27:03;;;;;;;11.57;6.80;;;34.40;51.50;;;;;;5073512;28;20460;-71
2022/07/24 07:29:29;;;;;;;7.95;6.18;;;34.50;50.90;;;;;;5073695;28;20025;-71
2022/07/24 07:31:55;;;;;;;9.23;5.85;;;34.40;51.00;;;;;;5073765;28;20130;-73
2022/07/24 07:34:20;;;;;;;11.60;6.97;;;34.40;50.90;;;;;;5073184;28;20496;-72
2022/07/24 07:36:46;;;;;;;11.30;6.47;;;34.50;50.60;;;;;;5073052;28;20070;-73
2022/07/24 07:39:12;;;;;;;9.02;6.65;;;34.50;51.60;;;;;;5073092;28;20519;-72
2022/07/24 07:41:38;;;;;;;9.52;6.00;;;34.50;51.70;;;;;;5073222;28;20024;-73
2022/07/24 07:44:04;;;;;;;8.13;6.03;;;34.60;50.80;;;;;;5072948;28;20074;-73
2022/07/24 07:46:30;;;;;;;14.30;6.60;;;34.60;50.30;;;;;;5073069;28;20104;-72
2022/07/24 07:48:56;;;;;;;13.07;6.45;;;34.70;50.40;;;;;;5073184;28;20035;-71
2022/07/24 07:51:21;;;;;;;13.15;6.15;;;34.70;49.80;;;;;;5073062;28;20021;-72
2022/07/24 07:53:47;;;;;;;9.07;5.88;;;34.70;49.40;;;;;;5073120;28;20500;-71
2022/07/24 07:56:13;;;;;;;13.20;6.18;;;34.60;49.30;;;;;;5072712;28;20480;-72
2022/07/24 07:58:38;;;;;;;9.15;5.50;;;34.60;48.90;;;;;;5072871;28;20365;-71
2022/07/24 08:01:04;;;;;;;10.95;6.13;;;34.60;47.20;;;;;;5072814;28;20032;-71
2022/07/24 08:03:30;;;;;;;13.88;6.50;;;34.60;46.90;;;;;;5073172;28;20552;-71
2022/07/24 08:05:56;;;;;;;13.95;6.22;;;34.60;46.90;;;;;;5073359;28;20025;-74
2022/07/24 08:08:22;;;;;;;10.43;6.13;;;34.70;46.80;;;;;;5073674;28;20335;-71
2022/07/24 08:10:48;;;;;;;12.20;6.65;;;34.60;46.60;;;;;;5073793;28;20025;-71
2022/07/24 08:13:14;;;;;;;10.70;6.40;;;34.60;46.50;;;;;;5072600;28;20028;-73
2022/07/24 08:15:41;;;;;;;10.18;5.95;;;34.50;46.30;;;;;;5072515;28;20056;-69
2022/07/24 08:18:07;;;;;;;8.93;5.57;;;34.40;45.90;;;;;;5072731;28;20107;-72
2022/07/24 08:20:33;;;;;;;10.80;6.32;;;34.30;45.50;;;;;;5072570;28;20094;-73
2022/07/24 08:22:59;;;;;;;9.45;5.80;;;34.20;45.70;;;;;;5072579;28;20385;-73
2022/07/24 08:25:26;;;;;;;9.82;5.65;;;34.20;46.40;;;;;;5072663;28;20032;-71
2022/07/24 08:27:52;;;;;;;9.23;6.00;;;34.00;45.70;;;;;;5072584;28;20029;-70
2022/07/24 08:30:18;;;;;;;9.57;5.63;;;33.90;46.10;;;;;;5072922;28;20028;-70
2022/07/24 08:32:44;;;;;;;8.75;5.85;;;33.90;46.00;;;;;;5072563;28;20032;-70
2022/07/24 08:35:11;;;;;;;11.23;6.20;;;33.90;46.10;;;;;;5072581;28;20022;-70
2022/07/24 08:37:38;;;;;;;11.95;6.53;;;33.90;46.30;;;;;;5072539;28;20366;-69
2022/07/24 08:40:05;;;;;;;13.63;6.93;;;33.80;46.10;;;;;;5073295;28;20439;-71
2022/07/24 08:42:31;;;;;;;11.90;6.57;;;33.80;46.30;;;;;;5072449;28;20024;-73
2022/07/24 08:44:57;;;;;;;9.38;6.18;;;33.70;45.90;;;;;;5072514;28;20032;-74
2022/07/24 08:47:25;;;;;;;12.18;6.85;;;33.60;45.70;;;;;;5072455;28;20070;-72
2022/07/24 08:49:54;;;;;;;13.38;6.75;;;33.60;46.00;;;;;;5072676;28;20032;-72
2022/07/24 08:52:21;;;;;;;8.98;6.45;;;33.60;46.20;;;;;;5072454;28;20017;-72
2022/07/24 08:54:47;;;;;;;14.75;7.22;;;33.60;45.90;;;;;;5072167;28;20052;-69
2022/07/24 08:57:13;;;;;;;12.10;6.70;;;33.50;46.00;;;;;;5072331;28;20048;-71
2022/07/24 08:59:40;;;;;;;15.15;7.05;;;33.50;45.80;;;;;;5071955;28;20025;-72
2022/07/24 09:02:06;;;;;;;14.07;6.70;;;33.50;45.70;;;;;;5072388;28;20074;-70
2022/07/24 09:04:47;;;;;;;10.25;6.82;;;33.50;45.70;;;;;;5072511;28;20033;-71
2022/07/24 09:07:18;;;;;;;13.82;7.90;;;33.50;45.70;;;;;;5072483;28;20021;-72
2022/07/24 09:09:56;;;;;;;14.07;7.45;;;33.50;45.60;;;;;;5072323;28;20029;-74
2022/07/24 09:12:22;;;;;;;16.50;7.20;;;33.50;45.60;;;;;;5072370;28;20020;-72
2022/07/24 09:14:48;;;;;;;18.77;7.70;;;33.50;45.70;;;;;;5071998;28;20040;-74
2022/07/24 09:17:20;;;;;;;11.40;6.55;;;33.50;45.40;;;;;;5054414;28;20017;-75
2022/07/24 09:19:58;;;;;;;11.90;7.10;;;33.60;45.00;;;;;;5073437;28;20028;-69
2022/07/24 09:22:35;;;;;;;12.63;7.28;;;33.50;45.40;;;;;;5076022;28;20043;-71
2022/07/24 09:25:13;;;;;;;11.32;7.18;;;33.60;45.30;;;;;;5075728;28;20028;-71
2022/07/24 09:27:54;;;;;;;12.55;7.55;;;33.60;45.10;;;;;;5057923;28;20115;-72
2022/07/24 09:30:23;;;;;;;11.15;6.97;;;33.70;45.10;;;;;;5075862;28;20024;-72
2022/07/24 09:33:06;;;;;;;11.38;6.85;;;33.70;44.30;;;;;;5075575;28;20074;-72
2022/07/24 09:35:33;;;;;;;11.13;7.00;;;33.70;44.30;;;;;;5075553;28;20017;-70
2022/07/24 09:38:00;;;;;;;10.88;6.70;;;33.70;44.30;;;;;;5075773;28;20032;-71
2022/07/24 09:40:37;;;;;;;12.32;6.78;;;33.70;44.20;;;;;;5075453;28;20122;-70
2022/07/24 09:43:25;;;;;;;10.50;6.90;;;33.70;44.20;;;;;;5075629;28;20477;-71
2022/07/24 09:45:52;;;;;;;11.48;7.13;;;33.80;44.10;;;;;;5075398;28;20029;-72
2022/07/24 09:48:22;;;;;;;13.18;6.70;;;33.80;43.90;;;;;;5075234;28;20021;-70
2022/07/24 09:50:52;;;;;;;12.13;6.75;;;33.70;43.90;;;;;;5075336;28;20024;-74
2022/07/24 09:53:21;;;;;;;9.38;6.72;;;33.70;44.10;;;;;;5075432;28;20358;-71
2022/07/24 09:56:04;;;;;;;11.63;6.70;;;33.70;44.30;;;;;;5075079;28;20043;-71
2022/07/24 09:58:31;;;;;;;11.93;6.90;;;33.70;45.30;;;;;;5075651;28;20351;-72
2022/07/24 10:00:59;;;;;;;9.52;7.07;;;33.80;45.10;;;;;;5075161;28;20032;-71
2022/07/24 10:03:28;;;;;;;15.85;6.72;;;33.90;45.10;;;;;;5074873;28;20032;-72
2022/07/24 10:05:57;;;;;;;10.80;6.60;;;34.00;44.90;;;;;;5075148;28;20032;-71
2022/07/24 10:08:22;;;;;;;11.45;6.82;;;34.10;44.90;;;;;;5075202;28;20013;-71
2022/07/24 10:10:50;;;;;;;7.85;6.50;;;34.10;45.10;;;;;;5075319;28;20016;-70
2022/07/24 10:13:16;;;;;;;11.15;6.55;;;34.10;44.90;;;;;;5075846;28;20024;-69
2022/07/24 10:15:58;;;;;;;8.85;6.63;;;34.10;44.70;;;;;;5077074;28;20020;-71
2022/07/24 10:18:36;;;;;;;10.77;6.80;;;34.10;45.30;;;;;;5074901;28;20067;-70
2022/07/24 10:21:09;;;;;;;11.68;6.57;;;34.10;44.60;;;;;;5075067;28;20039;-70
2022/07/24 10:24:01;;;;;;;;;;;34.20;44.40;;;;;;5075163;28;20465;-71
2022/07/24 10:26:37;;;;;;;13.60;6.50;;;34.20;44.70;;;;;;5036145;28;19944;-71
2022/07/24 10:29:07;;;;;;;10.85;6.82;;;34.20;44.10;;;;;;5057200;28;20112;-70
2022/07/24 10:31:35;;;;;;;10.05;6.60;;;34.30;44.10;;;;;;5073644;28;20033;-71
2022/07/24 10:34:06;;;;;;;11.05;6.20;;;34.30;44.10;;;;;;5056664;28;20033;-70
2022/07/24 10:36:40;;;;;;;8.10;6.45;;;34.30;44.30;;;;;;5074418;28;20016;-70
2022/07/24 10:39:18;;;;;;;10.23;6.38;;;34.40;44.10;;;;;;5074613;28;20063;-71
2022/07/24 10:42:00;;;;;;;10.32;6.25;;;34.40;43.90;;;;;;5074905;28;20036;-70
2022/07/24 10:44:25;;;;;;;10.95;6.53;;;34.50;43.60;;;;;;5074645;28;20029;-71
2022/07/24 10:47:01;;;;;;;10.07;6.45;;;34.50;44.40;;;;;;5074576;28;20089;-70
2022/07/24 10:49:48;;;;;;;11.45;6.50;;;34.50;44.90;;;;;;5074304;28;20457;-71
2022/07/24 10:52:43;;;;;;;11.23;6.53;;;34.50;45.20;;;;;;5074324;28;20017;-72
2022/07/24 10:55:33;;;;;;;9.68;6.78;;;34.70;45.20;;;;;;5057093;28;20116;-72
2022/07/24 10:58:21;;;;;;;10.00;7.30;;;34.80;45.70;;;;;;5074275;28;20055;-71
2022/07/24 11:00:51;;;;;;;11.30;7.30;;;34.80;45.80;;;;;;5074202;28;20032;-72
2022/07/24 11:03:20;;;;;;;11.32;6.38;;;34.80;46.60;;;;;;5073849;28;20021;-71
2022/07/24 11:06:01;;;;;;;11.75;6.40;;;34.80;47.30;;;;;;5073855;28;20028;-70
2022/07/24 11:08:32;;;;;;;9.18;7.03;;;34.80;47.50;;;;;;5074405;28;20462;-71
2022/07/24 11:11:13;;;;;;;10.98;6.72;;;34.90;47.50;;;;;;5074061;28;20027;-71
2022/07/24 11:13:42;;;;;;;11.20;7.28;;;35.00;47.60;;;;;;5073836;28;20105;-72
2022/07/24 11:16:11;;;;;;;9.52;6.40;;;35.00;47.30;;;;;;5073860;28;20468;-72
2022/07/24 11:19:00;;;;;;;10.32;7.18;;;35.10;47.50;;;;;;5073771;28;20550;-72
2022/07/24 11:21:29;;;;;;;10.25;6.68;;;35.10;48.10;;;;;;5036074;28;20052;-72
2022/07/24 11:24:21;;;;;;;9.35;6.53;;;35.20;48.30;;;;;;5073577;28;20109;-71
2022/07/24 11:26:56;;;;;;;15.65;7.68;;;35.40;49.40;;;;;;5073275;28;20024;-71
2022/07/24 11:29:23;;;;;;;10.52;6.80;;;35.40;50.40;;;;;;5073574;28;20426;-72
2022/07/24 11:31:54;;;;;;;9.95;6.68;;;35.30;51.90;;;;;;5073536;28;20025;-72
2022/07/24 11:34:20;;;;;;;12.57;7.07;;;35.30;52.30;;;;;;5073404;28;20024;-71
2022/07/24 11:36:48;;;;;;;12.18;7.07;;;35.30;52.70;;;;;;5072909;28;20047;-70
2022/07/24 11:39:15;;;;;;;10.70;7.00;;;35.20;52.70;;;;;;5072953;28;20063;-72
2022/07/24 11:41:55;;;;;;;9.32;6.50;;;35.30;52.70;;;;;;5073216;28;20111;-72
2022/07/24 11:44:29;;;;;;;11.00;6.45;;;35.40;52.10;;;;;;5073744;28;20025;-73
2022/07/24 11:46:59;;;;;;;9.38;6.45;;;35.40;52.70;;;;;;5073317;28;20029;-71
2022/07/24 11:49:26;;;;;;;11.73;6.72;;;35.40;52.30;;;;;;5073092;28;20063;-71
2022/07/24 11:51:54;;;;;;;8.32;6.25;;;35.40;52.90;;;;;;5073259;28;20036;-72
2022/07/24 11:54:26;;;;;;;12.38;6.18;;;35.40;52.80;;;;;;5073374;28;20024;-72
2022/07/24 11:56:54;;;;;;;15.73;6.25;;;35.40;51.90;;;;;;5072584;28;20048;-73
2022/07/24 11:59:27;;;;;;;12.40;6.50;;;35.50;52.50;;;;;;5072635;28;20059;-74
2022/07/24 12:02:10;;;;;;;8.57;5.40;;;35.60;52.60;;;;;;5072239;28;20099;-73
2022/07/24 12:04:38;;;;;;;9.37;5.10;;;35.60;52.00;;;;;;5072468;28;20024;-72
2022/07/24 12:07:12;;;;;;;7.32;5.38;;;35.60;52.80;;;;;;5072276;28;20036;-72
2022/07/24 12:09:49;;;;;;;9.57;5.22;;;35.60;52.70;;;;;;5072454;28;20032;-69
2022/07/24 12:12:28;;;;;;;8.98;5.57;;;35.50;53.40;;;;;;5071956;28;20201;-70
2022/07/24 12:15:11;;;;;;;11.93;5.68;;;35.50;52.40;;;;;;5072361;28;20418;-74
2022/07/24 12:18:04;;;;;;;14.30;5.78;;;35.70;52.60;;;;;;5072576;28;20024;-72
2022/07/24 12:20:32;;;;;;;9.57;5.53;;;35.70;52.10;;;;;;5072134;28;20045;-71
2022/07/24 12:23:00;;;;;;;11.73;5.70;;;35.70;53.40;;;;;;5073237;28;20025;-72
2022/07/24 12:25:26;;;;;;;9.73;5.32;;;35.70;52.60;;;;;;5072435;28;20070;-69
2022/07/24 12:28:01;;;;;;;10.63;5.50;;;35.80;52.30;;;;;;5071946;28;20024;-71
2022/07/24 12:30:30;;;;;;;7.75;5.45;;;35.80;52.30;;;;;;5072112;28;20029;-71
2022/07/24 12:33:01;;;;;;;10.43;5.38;;;35.80;52.40;;;;;;5071910;28;20107;-72
2022/07/24 12:35:29;;;;;;;8.15;5.22;;;35.80;52.00;;;;;;5054105;28;20017;-70
2022/07/24 12:37:55;;;;;;;8.77;5.03;;;35.90;52.10;;;;;;5071850;28;20365;-71
2022/07/24 12:40:36;;;;;;;7.80;4.72;;;35.90;51.70;;;;;;5072035;28;20080;-70
2022/07/24 12:43:08;;;;;;;7.85;4.88;;;36.00;50.90;;;;;;5071954;28;20025;-69